sensor_id;sensor_type;location;lat;lon;timestamp;P1;durP1;ratioP1;P2;durP2;ratioP2
7835;SDS011;3963;42.658;23.298;2023-05-07T00:00:40;15.43;;;11.43;;
7835;SDS011;3963;42.658;23.298;2023-05-07T00:03:07;17.30;;;11.70;;
7835;SDS011;3963;42.658;23.298;2023-05-07T00:05:36;14.33;;;10.83;;
7835;SDS011;3963;42.658;23.298;2023-05-07T00:08:03;17.87;;;11.97;;
7835;SDS011;3963;42.658;23.298;2023-05-07T00:10:30;13.43;;;10.33;;
7835;SDS011;3963;42.658;23.298;2023-05-07T00:12:57;16.70;;;11.10;;
7835;SDS011;3963;42.658;23.298;2023-05-07T00:15:23;16.37;;;10.83;;
7835;SDS011;3963;42.658;23.298;2023-05-07T00:17:50;16.17;;;10.73;;
7835;SDS011;3963;42.658;23.298;2023-05-07T00:20:17;14.17;;;10.80;;
7835;SDS011;3963;42.658;23.298;2023-05-07T00:22:45;15.20;;;10.73;;
7835;SDS011;3963;42.658;23.298;2023-05-07T00:25:12;17.43;;;10.57;;
7835;SDS011;3963;42.658;23.298;2023-05-07T00:27:39;17.60;;;10.00;;
7835;SDS011;3963;42.658;23.298;2023-05-07T00:30:06;19.03;;;12.27;;
7835;SDS011;3963;42.658;23.298;2023-05-07T00:32:34;14.47;;;9.77;;
7835;SDS011;3963;42.658;23.298;2023-05-07T00:35:01;13.30;;;9.70;;
7835;SDS011;3963;42.658;23.298;2023-05-07T00:37:28;12.90;;;9.57;;
7835;SDS011;3963;42.658;23.298;2023-05-07T00:39:59;13.07;;;8.63;;
7835;SDS011;3963;42.658;23.298;2023-05-07T00:42:25;15.73;;;8.47;;
7835;SDS011;3963;42.658;23.298;2023-05-07T00:44:52;12.73;;;8.70;;
7835;SDS011;3963;42.658;23.298;2023-05-07T00:47:20;12.93;;;8.10;;
7835;SDS011;3963;42.658;23.298;2023-05-07T00:49:47;11.43;;;7.90;;
7835;SDS011;3963;42.658;23.298;2023-05-07T00:52:14;11.33;;;8.40;;
7835;SDS011;3963;42.658;23.298;2023-05-07T00:54:42;11.80;;;7.77;;
7835;SDS011;3963;42.658;23.298;2023-05-07T00:57:13;12.90;;;8.37;;
7835;SDS011;3963;42.658;23.298;2023-05-07T00:59:40;14.50;;;8.60;;
7835;SDS011;3963;42.658;23.298;2023-05-07T01:02:07;13.37;;;9.90;;
7835;SDS011;3963;42.658;23.298;2023-05-07T01:04:34;17.17;;;9.47;;
7835;SDS011;3963;42.658;23.298;2023-05-07T01:07:01;13.17;;;9.40;;
7835;SDS011;3963;42.658;23.298;2023-05-07T01:09:30;13.27;;;9.20;;
7835;SDS011;3963;42.658;23.298;2023-05-07T01:11:57;13.63;;;9.00;;
7835;SDS011;3963;42.658;23.298;2023-05-07T01:14:27;17.07;;;9.73;;
7835;SDS011;3963;42.658;23.298;2023-05-07T01:16:56;13.60;;;9.53;;
7835;SDS011;3963;42.658;23.298;2023-05-07T01:19:23;15.80;;;9.33;;
7835;SDS011;3963;42.658;23.298;2023-05-07T01:21:51;13.40;;;8.93;;
7835;SDS011;3963;42.658;23.298;2023-05-07T01:24:30;11.33;;;8.30;;
7835;SDS011;3963;42.658;23.298;2023-05-07T01:26:58;14.20;;;9.20;;
7835;SDS011;3963;42.658;23.298;2023-05-07T01:29:28;9.77;;;7.80;;
7835;SDS011;3963;42.658;23.298;2023-05-07T01:31:55;10.97;;;7.50;;
7835;SDS011;3963;42.658;23.298;2023-05-07T01:34:25;10.23;;;7.43;;
7835;SDS011;3963;42.658;23.298;2023-05-07T01:36:53;9.30;;;6.97;;
7835;SDS011;3963;42.658;23.298;2023-05-07T01:39:23;12.53;;;7.47;;
7835;SDS011;3963;42.658;23.298;2023-05-07T01:41:54;13.13;;;8.73;;
7835;SDS011;3963;42.658;23.298;2023-05-07T01:44:22;12.53;;;8.70;;
7835;SDS011;3963;42.658;23.298;2023-05-07T01:46:49;13.03;;;8.83;;
7835;SDS011;3963;42.658;23.298;2023-05-07T01:49:16;13.63;;;9.73;;
7835;SDS011;3963;42.658;23.298;2023-05-07T01:51:44;13.00;;;8.30;;
7835;SDS011;3963;42.658;23.298;2023-05-07T01:54:11;10.03;;;7.83;;
7835;SDS011;3963;42.658;23.298;2023-05-07T01:56:38;12.33;;;8.63;;
7835;SDS011;3963;42.658;23.298;2023-05-07T01:59:06;16.90;;;9.23;;
7835;SDS011;3963;42.658;23.298;2023-05-07T02:01:34;10.57;;;7.77;;
7835;SDS011;3963;42.658;23.298;2023-05-07T02:04:00;12.83;;;7.53;;
7835;SDS011;3963;42.658;23.298;2023-05-07T02:06:28;13.63;;;8.10;;
7835;SDS011;3963;42.658;23.298;2023-05-07T02:08:55;13.43;;;8.67;;
7835;SDS011;3963;42.658;23.298;2023-05-07T02:11:22;11.90;;;8.20;;
7835;SDS011;3963;42.658;23.298;2023-05-07T02:13:50;19.03;;;10.70;;
7835;SDS011;3963;42.658;23.298;2023-05-07T02:16:19;16.47;;;11.40;;
7835;SDS011;3963;42.658;23.298;2023-05-07T02:18:46;16.23;;;10.90;;
7835;SDS011;3963;42.658;23.298;2023-05-07T02:21:13;13.30;;;9.83;;
7835;SDS011;3963;42.658;23.298;2023-05-07T02:23:40;12.57;;;8.30;;
7835;SDS011;3963;42.658;23.298;2023-05-07T02:26:07;12.70;;;9.00;;
7835;SDS011;3963;42.658;23.298;2023-05-07T02:28:33;11.70;;;8.20;;
7835;SDS011;3963;42.658;23.298;2023-05-07T02:31:02;12.37;;;9.10;;
7835;SDS011;3963;42.658;23.298;2023-05-07T02:33:30;13.20;;;9.07;;
7835;SDS011;3963;42.658;23.298;2023-05-07T02:35:59;10.13;;;7.53;;
7835;SDS011;3963;42.658;23.298;2023-05-07T02:38:31;10.37;;;7.77;;
7835;SDS011;3963;42.658;23.298;2023-05-07T02:40:58;11.43;;;8.03;;
7835;SDS011;3963;42.658;23.298;2023-05-07T02:43:25;11.43;;;7.63;;
7835;SDS011;3963;42.658;23.298;2023-05-07T02:45:59;11.23;;;8.13;;
7835;SDS011;3963;42.658;23.298;2023-05-07T02:48:26;13.60;;;8.87;;
7835;SDS011;3963;42.658;23.298;2023-05-07T02:50:57;11.37;;;8.13;;
7835;SDS011;3963;42.658;23.298;2023-05-07T02:53:24;10.67;;;8.70;;
7835;SDS011;3963;42.658;23.298;2023-05-07T02:55:51;12.47;;;8.33;;
7835;SDS011;3963;42.658;23.298;2023-05-07T02:58:20;10.70;;;8.20;;
7835;SDS011;3963;42.658;23.298;2023-05-07T03:00:47;11.67;;;8.67;;
7835;SDS011;3963;42.658;23.298;2023-05-07T03:03:14;12.27;;;9.37;;
7835;SDS011;3963;42.658;23.298;2023-05-07T03:05:42;12.63;;;8.43;;
7835;SDS011;3963;42.658;23.298;2023-05-07T03:08:12;12.73;;;8.37;;
7835;SDS011;3963;42.658;23.298;2023-05-07T03:10:39;12.37;;;9.27;;
7835;SDS011;3963;42.658;23.298;2023-05-07T03:13:05;10.60;;;7.90;;
7835;SDS011;3963;42.658;23.298;2023-05-07T03:15:32;11.83;;;9.13;;
7835;SDS011;3963;42.658;23.298;2023-05-07T03:18:00;12.90;;;9.07;;
7835;SDS011;3963;42.658;23.298;2023-05-07T03:20:27;15.00;;;8.77;;
7835;SDS011;3963;42.658;23.298;2023-05-07T03:22:53;13.40;;;9.27;;
7835;SDS011;3963;42.658;23.298;2023-05-07T03:25:22;11.67;;;8.87;;
7835;SDS011;3963;42.658;23.298;2023-05-07T03:27:48;13.97;;;9.17;;
7835;SDS011;3963;42.658;23.298;2023-05-07T03:30:15;11.30;;;8.73;;
7835;SDS011;3963;42.658;23.298;2023-05-07T03:32:42;15.83;;;9.20;;
7835;SDS011;3963;42.658;23.298;2023-05-07T03:35:09;12.33;;;8.90;;
7835;SDS011;3963;42.658;23.298;2023-05-07T03:37:36;11.07;;;7.97;;
7835;SDS011;3963;42.658;23.298;2023-05-07T03:40:03;13.60;;;8.97;;
7835;SDS011;3963;42.658;23.298;2023-05-07T03:42:32;14.23;;;8.80;;
7835;SDS011;3963;42.658;23.298;2023-05-07T03:44:58;12.97;;;8.60;;
7835;SDS011;3963;42.658;23.298;2023-05-07T03:47:25;11.20;;;8.07;;
7835;SDS011;3963;42.658;23.298;2023-05-07T03:49:52;20.10;;;9.07;;
7835;SDS011;3963;42.658;23.298;2023-05-07T03:52:20;12.23;;;8.87;;
7835;SDS011;3963;42.658;23.298;2023-05-07T03:54:50;13.83;;;9.03;;
7835;SDS011;3963;42.658;23.298;2023-05-07T03:57:18;16.93;;;9.43;;
7835;SDS011;3963;42.658;23.298;2023-05-07T03:59:47;15.20;;;8.80;;
7835;SDS011;3963;42.658;23.298;2023-05-07T04:02:13;13.03;;;9.27;;
7835;SDS011;3963;42.658;23.298;2023-05-07T04:04:40;12.57;;;8.93;;
7835;SDS011;3963;42.658;23.298;2023-05-07T04:07:07;14.40;;;9.47;;
7835;SDS011;3963;42.658;23.298;2023-05-07T04:09:35;13.63;;;9.00;;
7835;SDS011;3963;42.658;23.298;2023-05-07T04:12:02;15.63;;;9.63;;
7835;SDS011;3963;42.658;23.298;2023-05-07T04:14:29;13.67;;;9.73;;
7835;SDS011;3963;42.658;23.298;2023-05-07T04:16:58;15.10;;;9.67;;
7835;SDS011;3963;42.658;23.298;2023-05-07T04:19:25;14.67;;;9.53;;
7835;SDS011;3963;42.658;23.298;2023-05-07T04:21:52;16.73;;;9.73;;
7835;SDS011;3963;42.658;23.298;2023-05-07T04:24:18;17.13;;;9.93;;
7835;SDS011;3963;42.658;23.298;2023-05-07T04:26:45;14.20;;;8.97;;
7835;SDS011;3963;42.658;23.298;2023-05-07T04:29:12;19.87;;;9.67;;
7835;SDS011;3963;42.658;23.298;2023-05-07T04:31:39;14.70;;;9.40;;
7835;SDS011;3963;42.658;23.298;2023-05-07T04:34:08;23.40;;;10.63;;
7835;SDS011;3963;42.658;23.298;2023-05-07T04:36:36;16.10;;;9.40;;
7835;SDS011;3963;42.658;23.298;2023-05-07T04:39:03;15.97;;;10.10;;
7835;SDS011;3963;42.658;23.298;2023-05-07T04:41:30;15.73;;;9.93;;
7835;SDS011;3963;42.658;23.298;2023-05-07T04:43:57;12.90;;;9.67;;
7835;SDS011;3963;42.658;23.298;2023-05-07T04:46:24;15.40;;;9.90;;
7835;SDS011;3963;42.658;23.298;2023-05-07T04:48:51;15.70;;;10.50;;
7835;SDS011;3963;42.658;23.298;2023-05-07T04:51:20;16.33;;;11.03;;
7835;SDS011;3963;42.658;23.298;2023-05-07T04:53:47;16.47;;;10.43;;
7835;SDS011;3963;42.658;23.298;2023-05-07T04:56:14;17.13;;;10.77;;
7835;SDS011;3963;42.658;23.298;2023-05-07T04:58:41;14.43;;;10.60;;
7835;SDS011;3963;42.658;23.298;2023-05-07T05:01:10;14.53;;;10.97;;
7835;SDS011;3963;42.658;23.298;2023-05-07T05:03:37;17.77;;;11.70;;
7835;SDS011;3963;42.658;23.298;2023-05-07T05:06:04;19.37;;;10.47;;
7835;SDS011;3963;42.658;23.298;2023-05-07T05:08:33;16.37;;;11.30;;
7835;SDS011;3963;42.658;23.298;2023-05-07T05:11:00;17.40;;;11.23;;
7835;SDS011;3963;42.658;23.298;2023-05-07T05:13:27;15.20;;;10.97;;
7835;SDS011;3963;42.658;23.298;2023-05-07T05:15:55;15.50;;;10.73;;
7835;SDS011;3963;42.658;23.298;2023-05-07T05:18:22;12.70;;;9.50;;
7835;SDS011;3963;42.658;23.298;2023-05-07T05:20:49;15.93;;;11.60;;
7835;SDS011;3963;42.658;23.298;2023-05-07T05:23:18;18.13;;;11.40;;
7835;SDS011;3963;42.658;23.298;2023-05-07T05:25:47;15.67;;;11.17;;
7835;SDS011;3963;42.658;23.298;2023-05-07T05:28:13;16.20;;;10.47;;
7835;SDS011;3963;42.658;23.298;2023-05-07T05:30:40;12.27;;;9.67;;
7835;SDS011;3963;42.658;23.298;2023-05-07T05:33:07;14.60;;;9.70;;
7835;SDS011;3963;42.658;23.298;2023-05-07T05:35:34;15.77;;;10.13;;
7835;SDS011;3963;42.658;23.298;2023-05-07T05:38:01;14.00;;;9.80;;
7835;SDS011;3963;42.658;23.298;2023-05-07T05:40:28;15.03;;;9.83;;
7835;SDS011;3963;42.658;23.298;2023-05-07T05:42:56;15.87;;;9.93;;
7835;SDS011;3963;42.658;23.298;2023-05-07T05:45:23;16.83;;;10.30;;
7835;SDS011;3963;42.658;23.298;2023-05-07T05:47:50;11.50;;;9.67;;
7835;SDS011;3963;42.658;23.298;2023-05-07T05:50:17;11.60;;;8.97;;
7835;SDS011;3963;42.658;23.298;2023-05-07T05:52:44;11.17;;;9.50;;
7835;SDS011;3963;42.658;23.298;2023-05-07T05:55:11;12.37;;;9.90;;
7835;SDS011;3963;42.658;23.298;2023-05-07T05:57:38;12.77;;;8.83;;
7835;SDS011;3963;42.658;23.298;2023-05-07T06:00:07;14.47;;;9.83;;
7835;SDS011;3963;42.658;23.298;2023-05-07T06:02:35;12.53;;;9.47;;
7835;SDS011;3963;42.658;23.298;2023-05-07T06:05:02;15.37;;;10.00;;
7835;SDS011;3963;42.658;23.298;2023-05-07T06:07:30;12.23;;;9.43;;
7835;SDS011;3963;42.658;23.298;2023-05-07T06:09:57;14.47;;;8.93;;
7835;SDS011;3963;42.658;23.298;2023-05-07T06:12:24;13.03;;;9.67;;
7835;SDS011;3963;42.658;23.298;2023-05-07T06:14:51;11.90;;;8.53;;
7835;SDS011;3963;42.658;23.298;2023-05-07T06:17:19;11.90;;;8.80;;
7835;SDS011;3963;42.658;23.298;2023-05-07T06:19:46;13.63;;;8.83;;
7835;SDS011;3963;42.658;23.298;2023-05-07T06:22:13;11.40;;;9.33;;
7835;SDS011;3963;42.658;23.298;2023-05-07T06:24:40;12.30;;;9.00;;
7835;SDS011;3963;42.658;23.298;2023-05-07T06:27:06;12.70;;;8.67;;
7835;SDS011;3963;42.658;23.298;2023-05-07T06:29:33;11.47;;;8.80;;
7835;SDS011;3963;42.658;23.298;2023-05-07T06:32:07;11.50;;;8.47;;
7835;SDS011;3963;42.658;23.298;2023-05-07T06:34:35;10.10;;;7.53;;
7835;SDS011;3963;42.658;23.298;2023-05-07T06:37:02;10.80;;;7.23;;
7835;SDS011;3963;42.658;23.298;2023-05-07T06:39:29;11.27;;;8.00;;
7835;SDS011;3963;42.658;23.298;2023-05-07T06:41:57;11.67;;;8.10;;
7835;SDS011;3963;42.658;23.298;2023-05-07T06:44:23;10.47;;;7.77;;
7835;SDS011;3963;42.658;23.298;2023-05-07T06:46:51;10.97;;;7.47;;
7835;SDS011;3963;42.658;23.298;2023-05-07T06:49:18;10.10;;;7.60;;
7835;SDS011;3963;42.658;23.298;2023-05-07T06:51:46;10.17;;;8.13;;
7835;SDS011;3963;42.658;23.298;2023-05-07T06:54:13;13.07;;;7.70;;
7835;SDS011;3963;42.658;23.298;2023-05-07T06:56:39;8.03;;;7.13;;
7835;SDS011;3963;42.658;23.298;2023-05-07T06:59:06;12.13;;;7.30;;
7835;SDS011;3963;42.658;23.298;2023-05-07T07:01:33;11.47;;;7.60;;
7835;SDS011;3963;42.658;23.298;2023-05-07T07:04:00;11.50;;;7.43;;
7835;SDS011;3963;42.658;23.298;2023-05-07T07:06:26;10.47;;;7.97;;
7835;SDS011;3963;42.658;23.298;2023-05-07T07:08:56;11.07;;;6.70;;
7835;SDS011;3963;42.658;23.298;2023-05-07T07:11:23;9.57;;;6.53;;
7835;SDS011;3963;42.658;23.298;2023-05-07T07:13:50;9.47;;;6.73;;
7835;SDS011;3963;42.658;23.298;2023-05-07T07:16:16;10.53;;;6.70;;
7835;SDS011;3963;42.658;23.298;2023-05-07T07:18:43;6.90;;;5.53;;
7835;SDS011;3963;42.658;23.298;2023-05-07T07:21:10;7.90;;;6.07;;
7835;SDS011;3963;42.658;23.298;2023-05-07T07:23:37;8.87;;;6.50;;
7835;SDS011;3963;42.658;23.298;2023-05-07T07:26:05;9.40;;;6.50;;
7835;SDS011;3963;42.658;23.298;2023-05-07T07:28:32;10.23;;;6.73;;
7835;SDS011;3963;42.658;23.298;2023-05-07T07:30:58;10.97;;;6.37;;
7835;SDS011;3963;42.658;23.298;2023-05-07T07:33:25;8.30;;;6.37;;
7835;SDS011;3963;42.658;23.298;2023-05-07T07:35:52;9.40;;;6.13;;
7835;SDS011;3963;42.658;23.298;2023-05-07T07:38:19;8.57;;;5.90;;
7835;SDS011;3963;42.658;23.298;2023-05-07T07:40:47;10.43;;;6.33;;
7835;SDS011;3963;42.658;23.298;2023-05-07T07:43:15;9.43;;;7.43;;
7835;SDS011;3963;42.658;23.298;2023-05-07T07:45:42;10.10;;;6.97;;
7835;SDS011;3963;42.658;23.298;2023-05-07T07:48:11;9.07;;;7.73;;
7835;SDS011;3963;42.658;23.298;2023-05-07T07:50:37;9.77;;;7.03;;
7835;SDS011;3963;42.658;23.298;2023-05-07T07:53:07;12.73;;;7.73;;
7835;SDS011;3963;42.658;23.298;2023-05-07T07:55:37;9.53;;;6.50;;
7835;SDS011;3963;42.658;23.298;2023-05-07T07:58:04;9.97;;;6.43;;
7835;SDS011;3963;42.658;23.298;2023-05-07T08:00:32;14.90;;;7.33;;
7835;SDS011;3963;42.658;23.298;2023-05-07T08:02:59;8.33;;;6.53;;
7835;SDS011;3963;42.658;23.298;2023-05-07T08:05:28;8.23;;;6.00;;
7835;SDS011;3963;42.658;23.298;2023-05-07T08:07:55;9.93;;;7.10;;
7835;SDS011;3963;42.658;23.298;2023-05-07T08:10:21;9.70;;;6.83;;
7835;SDS011;3963;42.658;23.298;2023-05-07T08:12:48;10.47;;;6.57;;
7835;SDS011;3963;42.658;23.298;2023-05-07T08:15:16;8.97;;;6.57;;
7835;SDS011;3963;42.658;23.298;2023-05-07T08:17:45;10.13;;;6.13;;
7835;SDS011;3963;42.658;23.298;2023-05-07T08:20:11;8.87;;;6.93;;
7835;SDS011;3963;42.658;23.298;2023-05-07T08:22:38;13.80;;;7.13;;
7835;SDS011;3963;42.658;23.298;2023-05-07T08:25:05;9.37;;;6.10;;
7835;SDS011;3963;42.658;23.298;2023-05-07T08:27:32;9.67;;;6.63;;
7835;SDS011;3963;42.658;23.298;2023-05-07T08:29:59;9.33;;;6.27;;
7835;SDS011;3963;42.658;23.298;2023-05-07T08:32:25;9.70;;;6.33;;
7835;SDS011;3963;42.658;23.298;2023-05-07T08:34:54;10.73;;;7.07;;
7835;SDS011;3963;42.658;23.298;2023-05-07T08:37:21;9.77;;;7.13;;
7835;SDS011;3963;42.658;23.298;2023-05-07T08:39:48;7.30;;;6.50;;
7835;SDS011;3963;42.658;23.298;2023-05-07T08:42:15;7.93;;;5.50;;
7835;SDS011;3963;42.658;23.298;2023-05-07T08:44:44;8.67;;;6.00;;
7835;SDS011;3963;42.658;23.298;2023-05-07T08:47:12;7.23;;;5.53;;
7835;SDS011;3963;42.658;23.298;2023-05-07T08:49:38;7.60;;;6.30;;
7835;SDS011;3963;42.658;23.298;2023-05-07T08:52:07;6.03;;;5.43;;
7835;SDS011;3963;42.658;23.298;2023-05-07T08:54:35;7.40;;;4.97;;
7835;SDS011;3963;42.658;23.298;2023-05-07T08:57:03;7.93;;;5.43;;
7835;SDS011;3963;42.658;23.298;2023-05-07T08:59:30;8.33;;;5.20;;
7835;SDS011;3963;42.658;23.298;2023-05-07T09:01:57;7.80;;;5.27;;
7835;SDS011;3963;42.658;23.298;2023-05-07T09:04:24;5.93;;;4.47;;
7835;SDS011;3963;42.658;23.298;2023-05-07T09:06:51;7.28;;;4.78;;
7835;SDS011;3963;42.658;23.298;2023-05-07T09:09:21;7.07;;;5.33;;
7835;SDS011;3963;42.658;23.298;2023-05-07T09:11:53;6.07;;;4.93;;
7835;SDS011;3963;42.658;23.298;2023-05-07T09:14:23;6.13;;;4.57;;
7835;SDS011;3963;42.658;23.298;2023-05-07T09:16:51;6.50;;;4.88;;
7835;SDS011;3963;42.658;23.298;2023-05-07T09:19:22;6.53;;;4.72;;
7835;SDS011;3963;42.658;23.298;2023-05-07T09:21:49;6.25;;;5.32;;
7835;SDS011;3963;42.658;23.298;2023-05-07T09:24:25;6.43;;;4.82;;
7835;SDS011;3963;42.658;23.298;2023-05-07T09:26:53;5.07;;;4.47;;
7835;SDS011;3963;42.658;23.298;2023-05-07T09:29:20;6.25;;;4.70;;
7835;SDS011;3963;42.658;23.298;2023-05-07T09:31:47;8.23;;;6.10;;
7835;SDS011;3963;42.658;23.298;2023-05-07T09:34:14;6.07;;;4.63;;
7835;SDS011;3963;42.658;23.298;2023-05-07T09:36:40;5.68;;;4.75;;
7835;SDS011;3963;42.658;23.298;2023-05-07T09:39:09;8.38;;;4.95;;
7835;SDS011;3963;42.658;23.298;2023-05-07T09:41:46;6.53;;;4.43;;
7835;SDS011;3963;42.658;23.298;2023-05-07T09:44:14;4.90;;;4.13;;
7835;SDS011;3963;42.658;23.298;2023-05-07T09:46:42;6.07;;;4.80;;
7835;SDS011;3963;42.658;23.298;2023-05-07T09:49:11;5.57;;;4.67;;
7835;SDS011;3963;42.658;23.298;2023-05-07T09:51:45;7.37;;;4.37;;
7835;SDS011;3963;42.658;23.298;2023-05-07T09:54:15;6.73;;;5.67;;
7835;SDS011;3963;42.658;23.298;2023-05-07T09:56:43;7.53;;;4.63;;
7835;SDS011;3963;42.658;23.298;2023-05-07T09:59:12;6.60;;;4.57;;
7835;SDS011;3963;42.658;23.298;2023-05-07T10:01:41;6.43;;;4.53;;
7835;SDS011;3963;42.658;23.298;2023-05-07T10:04:10;4.75;;;4.15;;
7835;SDS011;3963;42.658;23.298;2023-05-07T10:06:37;6.27;;;4.00;;
7835;SDS011;3963;42.658;23.298;2023-05-07T10:09:04;4.70;;;3.90;;
7835;SDS011;3963;42.658;23.298;2023-05-07T10:11:32;6.78;;;4.00;;
7835;SDS011;3963;42.658;23.298;2023-05-07T10:14:01;3.95;;;3.40;;
7835;SDS011;3963;42.658;23.298;2023-05-07T10:16:31;6.00;;;3.40;;
7835;SDS011;3963;42.658;23.298;2023-05-07T10:19:01;7.07;;;4.03;;
7835;SDS011;3963;42.658;23.298;2023-05-07T10:21:29;5.60;;;4.60;;
7835;SDS011;3963;42.658;23.298;2023-05-07T10:23:58;4.50;;;3.70;;
7835;SDS011;3963;42.658;23.298;2023-05-07T10:26:27;5.60;;;4.33;;
7835;SDS011;3963;42.658;23.298;2023-05-07T10:28:59;4.93;;;3.77;;
7835;SDS011;3963;42.658;23.298;2023-05-07T10:31:45;7.37;;;4.50;;
7835;SDS011;3963;42.658;23.298;2023-05-07T10:34:20;5.23;;;3.93;;
7835;SDS011;3963;42.658;23.298;2023-05-07T10:36:50;5.07;;;4.00;;
7835;SDS011;3963;42.658;23.298;2023-05-07T10:39:19;5.57;;;4.10;;
7835;SDS011;3963;42.658;23.298;2023-05-07T10:41:45;6.07;;;4.50;;
7835;SDS011;3963;42.658;23.298;2023-05-07T10:44:18;7.47;;;4.50;;
7835;SDS011;3963;42.658;23.298;2023-05-07T10:47:03;8.20;;;4.33;;
7835;SDS011;3963;42.658;23.298;2023-05-07T10:49:34;6.40;;;4.67;;
7835;SDS011;3963;42.658;23.298;2023-05-07T10:52:14;5.83;;;4.30;;
7835;SDS011;3963;42.658;23.298;2023-05-07T10:54:41;6.40;;;4.43;;
7835;SDS011;3963;42.658;23.298;2023-05-07T11:27:38;9.77;;;3.95;;
7835;SDS011;3963;42.658;23.298;2023-05-07T11:30:06;5.25;;;4.00;;
7835;SDS011;3963;42.658;23.298;2023-05-07T11:32:33;6.63;;;4.45;;
7835;SDS011;3963;42.658;23.298;2023-05-07T11:35:00;6.00;;;4.60;;
7835;SDS011;3963;42.658;23.298;2023-05-07T11:37:27;5.27;;;4.00;;
7835;SDS011;3963;42.658;23.298;2023-05-07T11:40:02;5.37;;;4.30;;
7835;SDS011;3963;42.658;23.298;2023-05-07T11:42:31;4.67;;;4.27;;
7835;SDS011;3963;42.658;23.298;2023-05-07T11:45:02;4.33;;;3.83;;
7835;SDS011;3963;42.658;23.298;2023-05-07T11:47:30;7.33;;;4.10;;
7835;SDS011;3963;42.658;23.298;2023-05-07T11:50:02;5.57;;;4.03;;
7835;SDS011;3963;42.658;23.298;2023-05-07T11:52:30;5.73;;;4.10;;
7835;SDS011;3963;42.658;23.298;2023-05-07T11:54:57;4.87;;;4.33;;
7835;SDS011;3963;42.658;23.298;2023-05-07T11:57:25;6.73;;;3.93;;
7835;SDS011;3963;42.658;23.298;2023-05-07T11:59:53;5.80;;;3.97;;
7835;SDS011;3963;42.658;23.298;2023-05-07T12:02:22;8.70;;;4.00;;
7835;SDS011;3963;42.658;23.298;2023-05-07T12:04:50;6.87;;;3.90;;
7835;SDS011;3963;42.658;23.298;2023-05-07T12:07:16;7.73;;;3.63;;
7835;SDS011;3963;42.658;23.298;2023-05-07T12:09:44;4.07;;;3.67;;
7835;SDS011;3963;42.658;23.298;2023-05-07T12:12:12;6.53;;;3.67;;
7835;SDS011;3963;42.658;23.298;2023-05-07T12:14:40;5.93;;;4.27;;
7835;SDS011;3963;42.658;23.298;2023-05-07T12:17:09;7.10;;;4.23;;
7835;SDS011;3963;42.658;23.298;2023-05-07T12:19:38;5.10;;;4.33;;
7835;SDS011;3963;42.658;23.298;2023-05-07T12:22:05;6.03;;;4.13;;
7835;SDS011;3963;42.658;23.298;2023-05-07T12:24:44;7.57;;;4.30;;
7835;SDS011;3963;42.658;23.298;2023-05-07T12:27:11;6.37;;;3.60;;
7835;SDS011;3963;42.658;23.298;2023-05-07T12:29:40;5.00;;;3.27;;
7835;SDS011;3963;42.658;23.298;2023-05-07T12:32:12;5.73;;;3.40;;
7835;SDS011;3963;42.658;23.298;2023-05-07T12:34:42;9.00;;;3.47;;
7835;SDS011;3963;42.658;23.298;2023-05-07T12:37:09;4.07;;;3.67;;
7835;SDS011;3963;42.658;23.298;2023-05-07T12:39:36;4.70;;;3.80;;
7835;SDS011;3963;42.658;23.298;2023-05-07T12:42:03;5.30;;;3.20;;
7835;SDS011;3963;42.658;23.298;2023-05-07T12:44:30;5.80;;;3.20;;
7835;SDS011;3963;42.658;23.298;2023-05-07T12:46:58;3.77;;;3.47;;
7835;SDS011;3963;42.658;23.298;2023-05-07T12:49:29;4.77;;;3.50;;
7835;SDS011;3963;42.658;23.298;2023-05-07T12:51:57;5.40;;;3.23;;
7835;SDS011;3963;42.658;23.298;2023-05-07T12:54:28;3.83;;;3.50;;
7835;SDS011;3963;42.658;23.298;2023-05-07T12:57:02;4.93;;;3.60;;
7835;SDS011;3963;42.658;23.298;2023-05-07T12:59:31;5.50;;;3.47;;
7835;SDS011;3963;42.658;23.298;2023-05-07T13:01:58;4.07;;;3.40;;
7835;SDS011;3963;42.658;23.298;2023-05-07T13:04:25;4.60;;;4.00;;
7835;SDS011;3963;42.658;23.298;2023-05-07T13:06:51;4.10;;;3.70;;
7835;SDS011;3963;42.658;23.298;2023-05-07T13:09:22;6.93;;;4.10;;
7835;SDS011;3963;42.658;23.298;2023-05-07T13:11:48;7.97;;;4.10;;
7835;SDS011;3963;42.658;23.298;2023-05-07T13:14:15;4.17;;;3.70;;
7835;SDS011;3963;42.658;23.298;2023-05-07T13:16:42;5.03;;;3.47;;
7835;SDS011;3963;42.658;23.298;2023-05-07T13:19:09;6.10;;;4.00;;
7835;SDS011;3963;42.658;23.298;2023-05-07T13:21:36;4.83;;;4.00;;
7835;SDS011;3963;42.658;23.298;2023-05-07T13:24:03;5.50;;;4.00;;
7835;SDS011;3963;42.658;23.298;2023-05-07T13:26:33;5.60;;;3.87;;
7835;SDS011;3963;42.658;23.298;2023-05-07T13:29:01;5.53;;;3.80;;
7835;SDS011;3963;42.658;23.298;2023-05-07T13:31:27;3.87;;;3.47;;
7835;SDS011;3963;42.658;23.298;2023-05-07T13:33:55;5.20;;;3.50;;
7835;SDS011;3963;42.658;23.298;2023-05-07T13:36:21;7.07;;;4.33;;
7835;SDS011;3963;42.658;23.298;2023-05-07T13:38:48;3.40;;;3.10;;
7835;SDS011;3963;42.658;23.298;2023-05-07T13:41:15;3.63;;;3.23;;
7835;SDS011;3963;42.658;23.298;2023-05-07T13:43:43;4.40;;;3.60;;
7835;SDS011;3963;42.658;23.298;2023-05-07T13:46:10;4.53;;;3.30;;
7835;SDS011;3963;42.658;23.298;2023-05-07T13:48:37;3.97;;;3.30;;
7835;SDS011;3963;42.658;23.298;2023-05-07T13:51:04;3.40;;;3.10;;
7835;SDS011;3963;42.658;23.298;2023-05-07T13:53:30;4.47;;;3.50;;
7835;SDS011;3963;42.658;23.298;2023-05-07T13:55:58;3.57;;;3.00;;
7835;SDS011;3963;42.658;23.298;2023-05-07T13:58:25;4.20;;;3.10;;
7835;SDS011;3963;42.658;23.298;2023-05-07T14:00:53;5.10;;;4.43;;
7835;SDS011;3963;42.658;23.298;2023-05-07T14:03:19;9.77;;;4.00;;
7835;SDS011;3963;42.658;23.298;2023-05-07T14:05:46;9.13;;;4.30;;
7835;SDS011;3963;42.658;23.298;2023-05-07T14:08:13;7.60;;;3.00;;
7835;SDS011;3963;42.658;23.298;2023-05-07T14:10:40;5.20;;;3.67;;
7835;SDS011;3963;42.658;23.298;2023-05-07T14:13:07;18.23;;;3.87;;
7835;SDS011;3963;42.658;23.298;2023-05-07T14:15:33;4.53;;;3.07;;
7835;SDS011;3963;42.658;23.298;2023-05-07T14:18:02;4.43;;;3.43;;
7835;SDS011;3963;42.658;23.298;2023-05-07T14:20:29;5.27;;;3.30;;
7835;SDS011;3963;42.658;23.298;2023-05-07T14:22:56;5.43;;;3.93;;
7835;SDS011;3963;42.658;23.298;2023-05-07T14:25:23;3.43;;;3.03;;
7835;SDS011;3963;42.658;23.298;2023-05-07T14:27:50;5.03;;;3.67;;
7835;SDS011;3963;42.658;23.298;2023-05-07T14:30:16;6.17;;;3.50;;
7835;SDS011;3963;42.658;23.298;2023-05-07T14:32:43;4.57;;;3.30;;
7835;SDS011;3963;42.658;23.298;2023-05-07T14:35:11;3.07;;;2.77;;
7835;SDS011;3963;42.658;23.298;2023-05-07T14:37:38;6.30;;;3.77;;
7835;SDS011;3963;42.658;23.298;2023-05-07T14:40:05;5.87;;;3.30;;
7835;SDS011;3963;42.658;23.298;2023-05-07T14:42:33;4.70;;;3.27;;
7835;SDS011;3963;42.658;23.298;2023-05-07T14:45:00;7.03;;;3.23;;
7835;SDS011;3963;42.658;23.298;2023-05-07T14:47:26;3.40;;;3.10;;
7835;SDS011;3963;42.658;23.298;2023-05-07T14:49:53;4.27;;;3.20;;
7835;SDS011;3963;42.658;23.298;2023-05-07T14:52:23;5.57;;;3.17;;
7835;SDS011;3963;42.658;23.298;2023-05-07T14:54:51;3.50;;;2.97;;
7835;SDS011;3963;42.658;23.298;2023-05-07T14:57:18;3.63;;;3.33;;
7835;SDS011;3963;42.658;23.298;2023-05-07T14:59:45;5.80;;;3.23;;
7835;SDS011;3963;42.658;23.298;2023-05-07T15:02:12;4.20;;;3.40;;
7835;SDS011;3963;42.658;23.298;2023-05-07T15:04:39;4.53;;;3.37;;
7835;SDS011;3963;42.658;23.298;2023-05-07T15:07:10;3.93;;;3.30;;
7835;SDS011;3963;42.658;23.298;2023-05-07T15:09:41;4.53;;;3.10;;
7835;SDS011;3963;42.658;23.298;2023-05-07T15:12:08;4.37;;;3.47;;
7835;SDS011;3963;42.658;23.298;2023-05-07T15:14:36;4.97;;;3.50;;
7835;SDS011;3963;42.658;23.298;2023-05-07T15:17:03;3.37;;;3.07;;
7835;SDS011;3963;42.658;23.298;2023-05-07T15:19:30;5.60;;;3.20;;
7835;SDS011;3963;42.658;23.298;2023-05-07T15:21:57;4.27;;;3.20;;
7835;SDS011;3963;42.658;23.298;2023-05-07T15:24:24;4.43;;;2.93;;
7835;SDS011;3963;42.658;23.298;2023-05-07T15:26:53;6.70;;;3.03;;